sensor_id;sensor_type;location;lat;lon;timestamp;pressure;altitude;pressure_sealevel;temperature
74798;BMP280;63326;45.088;7.658;2022-09-09T00:04:53;98400.97;;;23.28
74798;BMP280;63326;45.088;7.658;2022-09-09T00:07:49;98392.25;;;23.37
74798;BMP280;63326;45.088;7.658;2022-09-09T00:10:37;98398.78;;;23.52
74798;BMP280;63326;45.088;7.658;2022-09-09T00:21:40;98384.00;;;23.27
74798;BMP280;63326;45.088;7.658;2022-09-09T00:24:16;98371.38;;;23.24
74798;BMP280;63326;45.088;7.658;2022-09-09T00:26:54;98376.50;;;23.19
74798;BMP280;63326;45.088;7.658;2022-09-09T00:32:09;98376.59;;;23.15
74798;BMP280;63326;45.088;7.658;2022-09-09T00:34:42;98381.53;;;23.04
74798;BMP280;63326;45.088;7.658;2022-09-09T00:37:08;98382.69;;;23.03
74798;BMP280;63326;45.088;7.658;2022-09-09T00:39:37;98386.53;;;23.05
74798;BMP280;63326;45.088;7.658;2022-09-09T00:42:13;98376.00;;;23.08
74798;BMP280;63326;45.088;7.658;2022-09-09T00:50:16;98380.53;;;22.98
74798;BMP280;63326;45.088;7.658;2022-09-09T00:55:48;98370.66;;;22.75
74798;BMP280;63326;45.088;7.658;2022-09-09T00:58:15;98362.78;;;22.97
74798;BMP280;63326;45.088;7.658;2022-09-09T01:00:47;98358.78;;;23.18
74798;BMP280;63326;45.088;7.658;2022-09-09T01:03:28;98346.47;;;23.30
74798;BMP280;63326;45.088;7.658;2022-09-09T01:11:59;98342.03;;;23.23
74798;BMP280;63326;45.088;7.658;2022-09-09T01:14:39;98341.06;;;23.30
74798;BMP280;63326;45.088;7.658;2022-09-09T01:17:23;98346.16;;;23.27
74798;BMP280;63326;45.088;7.658;2022-09-09T01:20:00;98333.97;;;23.36
74798;BMP280;63326;45.088;7.658;2022-09-09T01:22:34;98339.69;;;23.38
74798;BMP280;63326;45.088;7.658;2022-09-09T01:25:26;98329.75;;;23.35
74798;BMP280;63326;45.088;7.658;2022-09-09T01:27:56;98332.53;;;23.31
74798;BMP280;63326;45.088;7.658;2022-09-09T01:30:22;98332.22;;;23.29
74798;BMP280;63326;45.088;7.658;2022-09-09T01:32:52;98327.53;;;23.17
74798;BMP280;63326;45.088;7.658;2022-09-09T01:37:57;98338.25;;;23.20
74798;BMP280;63326;45.088;7.658;2022-09-09T01:40:24;98339.72;;;23.21
74798;BMP280;63326;45.088;7.658;2022-09-09T01:42:50;98346.44;;;22.88
74798;BMP280;63326;45.088;7.658;2022-09-09T01:45:15;98354.00;;;22.76
74798;BMP280;63326;45.088;7.658;2022-09-09T01:47:41;98349.56;;;22.53
74798;BMP280;63326;45.088;7.658;2022-09-09T01:50:08;98353.53;;;22.65
74798;BMP280;63326;45.088;7.658;2022-09-09T01:52:37;98351.84;;;22.38
74798;BMP280;63326;45.088;7.658;2022-09-09T01:55:02;98352.75;;;22.32
74798;BMP280;63326;45.088;7.658;2022-09-09T01:57:33;98342.69;;;22.16
74798;BMP280;63326;45.088;7.658;2022-09-09T02:00:10;98355.06;;;22.13
74798;BMP280;63326;45.088;7.658;2022-09-09T02:03:09;98353.69;;;22.41
74798;BMP280;63326;45.088;7.658;2022-09-09T02:05:45;98353.84;;;22.18
74798;BMP280;63326;45.088;7.658;2022-09-09T02:08:45;98359.44;;;22.27
74798;BMP280;63326;45.088;7.658;2022-09-09T02:11:17;98358.75;;;22.23
74798;BMP280;63326;45.088;7.658;2022-09-09T02:13:45;98360.09;;;22.15
74798;BMP280;63326;45.088;7.658;2022-09-09T02:16:28;98357.09;;;22.09
74798;BMP280;63326;45.088;7.658;2022-09-09T02:19:02;98357.22;;;22.22
74798;BMP280;63326;45.088;7.658;2022-09-09T02:21:30;98359.75;;;22.29
74798;BMP280;63326;45.088;7.658;2022-09-09T02:23:58;98355.88;;;22.30
74798;BMP280;63326;45.088;7.658;2022-09-09T02:26:25;98345.91;;;22.11
74798;BMP280;63326;45.088;7.658;2022-09-09T02:28:54;98348.25;;;22.09
74798;BMP280;63326;45.088;7.658;2022-09-09T02:31:22;98343.25;;;22.27
74798;BMP280;63326;45.088;7.658;2022-09-09T02:33:56;98344.66;;;22.32
74798;BMP280;63326;45.088;7.658;2022-09-09T02:36:24;98337.06;;;22.27
74798;BMP280;63326;45.088;7.658;2022-09-09T02:38:51;98334.81;;;22.41
74798;BMP280;63326;45.088;7.658;2022-09-09T02:41:32;98332.41;;;22.60
74798;BMP280;63326;45.088;7.658;2022-09-09T02:43:58;98329.56;;;22.67
74798;BMP280;63326;45.088;7.658;2022-09-09T02:49:56;98328.66;;;22.74
74798;BMP280;63326;45.088;7.658;2022-09-09T02:52:32;98334.13;;;22.70
74798;BMP280;63326;45.088;7.658;2022-09-09T02:55:06;98335.41;;;22.65
74798;BMP280;63326;45.088;7.658;2022-09-09T02:57:34;98333.28;;;22.57
74798;BMP280;63326;45.088;7.658;2022-09-09T03:00:00;98337.50;;;22.41
74798;BMP280;63326;45.088;7.658;2022-09-09T03:02:26;98337.06;;;22.27
74798;BMP280;63326;45.088;7.658;2022-09-09T03:04:52;98341.06;;;22.02
74798;BMP280;63326;45.088;7.658;2022-09-09T03:07:18;98339.84;;;22.39
74798;BMP280;63326;45.088;7.658;2022-09-09T03:09:44;98335.88;;;22.44
74798;BMP280;63326;45.088;7.658;2022-09-09T03:12:09;98340.00;;;22.32
74798;BMP280;63326;45.088;7.658;2022-09-09T03:14:36;98323.50;;;22.47
74798;BMP280;63326;45.088;7.658;2022-09-09T03:17:03;98331.06;;;22.52
74798;BMP280;63326;45.088;7.658;2022-09-09T03:19:28;98327.06;;;22.27
74798;BMP280;63326;45.088;7.658;2022-09-09T03:21:55;98334.72;;;22.29
74798;BMP280;63326;45.088;7.658;2022-09-09T03:24:20;98327.13;;;22.23
74798;BMP280;63326;45.088;7.658;2022-09-09T03:26:46;98321.13;;;21.79
74798;BMP280;63326;45.088;7.658;2022-09-09T03:29:12;98330.00;;;21.60
74798;BMP280;63326;45.088;7.658;2022-09-09T03:31:38;98324.56;;;21.80
74798;BMP280;63326;45.088;7.658;2022-09-09T03:34:04;98323.19;;;21.92
74798;BMP280;63326;45.088;7.658;2022-09-09T03:36:30;98323.00;;;21.82
74798;BMP280;63326;45.088;7.658;2022-09-09T03:38:56;98322.41;;;21.91
74798;BMP280;63326;45.088;7.658;2022-09-09T03:41:22;98315.84;;;21.92
74798;BMP280;63326;45.088;7.658;2022-09-09T03:43:52;98314.00;;;21.69
74798;BMP280;63326;45.088;7.658;2022-09-09T03:46:19;98314.94;;;21.99
74798;BMP280;63326;45.088;7.658;2022-09-09T03:48:44;98314.03;;;22.06
74798;BMP280;63326;45.088;7.658;2022-09-09T03:51:10;98316.56;;;22.13
74798;BMP280;63326;45.088;7.658;2022-09-09T03:53:36;98317.13;;;22.04
74798;BMP280;63326;45.088;7.658;2022-09-09T03:56:02;98317.88;;;22.04
74798;BMP280;63326;45.088;7.658;2022-09-09T03:58:28;98321.72;;;21.87
74798;BMP280;63326;45.088;7.658;2022-09-09T04:00:58;98322.84;;;21.90
74798;BMP280;63326;45.088;7.658;2022-09-09T04:03:24;98321.59;;;21.94
74798;BMP280;63326;45.088;7.658;2022-09-09T04:05:51;98329.88;;;22.03
74798;BMP280;63326;45.088;7.658;2022-09-09T04:08:17;98335.59;;;22.06
74798;BMP280;63326;45.088;7.658;2022-09-09T04:10:45;98336.69;;;22.08
74798;BMP280;63326;45.088;7.658;2022-09-09T04:13:12;98340.28;;;21.85
74798;BMP280;63326;45.088;7.658;2022-09-09T04:15:39;98329.31;;;21.92
74798;BMP280;63326;45.088;7.658;2022-09-09T04:18:04;98331.78;;;21.87
74798;BMP280;63326;45.088;7.658;2022-09-09T04:20:30;98334.72;;;21.92
74798;BMP280;63326;45.088;7.658;2022-09-09T04:22:55;98336.22;;;21.37
74798;BMP280;63326;45.088;7.658;2022-09-09T04:25:21;98330.09;;;21.13
74798;BMP280;63326;45.088;7.658;2022-09-09T04:27:46;98333.50;;;20.93
74798;BMP280;63326;45.088;7.658;2022-09-09T04:30:12;98337.06;;;21.10
74798;BMP280;63326;45.088;7.658;2022-09-09T04:32:37;98352.00;;;21.35
74798;BMP280;63326;45.088;7.658;2022-09-09T04:35:03;98349.31;;;21.15
74798;BMP280;63326;45.088;7.658;2022-09-09T04:37:28;98349.78;;;21.10
74798;BMP280;63326;45.088;7.658;2022-09-09T04:39:54;98351.91;;;20.98
74798;BMP280;63326;45.088;7.658;2022-09-09T04:42:19;98353.34;;;21.03
74798;BMP280;63326;45.088;7.658;2022-09-09T04:44:45;98359.47;;;20.83
74798;BMP280;63326;45.088;7.658;2022-09-09T04:47:10;98350.63;;;21.27
74798;BMP280;63326;45.088;7.658;2022-09-09T04:49:36;98351.50;;;21.43
74798;BMP280;63326;45.088;7.658;2022-09-09T04:52:02;98349.91;;;21.46
74798;BMP280;63326;45.088;7.658;2022-09-09T04:54:28;98347.88;;;21.50
74798;BMP280;63326;45.088;7.658;2022-09-09T04:56:54;98361.88;;;21.45
74798;BMP280;63326;45.088;7.658;2022-09-09T04:59:20;98378.84;;;21.42
74798;BMP280;63326;45.088;7.658;2022-09-09T05:01:45;98379.69;;;21.15
74798;BMP280;63326;45.088;7.658;2022-09-09T05:04:11;98379.94;;;21.25
74798;BMP280;63326;45.088;7.658;2022-09-09T05:06:36;98386.63;;;21.16
74798;BMP280;63326;45.088;7.658;2022-09-09T05:09:02;98389.88;;;21.28
74798;BMP280;63326;45.088;7.658;2022-09-09T05:11:30;98377.56;;;21.27
74798;BMP280;63326;45.088;7.658;2022-09-09T05:13:57;98384.94;;;21.46
74798;BMP280;63326;45.088;7.658;2022-09-09T05:16:22;98400.50;;;21.38
74798;BMP280;63326;45.088;7.658;2022-09-09T05:18:48;98387.31;;;21.20
74798;BMP280;63326;45.088;7.658;2022-09-09T05:21:16;98388.84;;;21.21
74798;BMP280;63326;45.088;7.658;2022-09-09T05:23:41;98387.84;;;21.55
74798;BMP280;63326;45.088;7.658;2022-09-09T05:26:12;98394.31;;;21.38
74798;BMP280;63326;45.088;7.658;2022-09-09T05:28:38;98395.84;;;21.39
74798;BMP280;63326;45.088;7.658;2022-09-09T05:31:06;98396.22;;;21.61
74798;BMP280;63326;45.088;7.658;2022-09-09T05:33:33;98404.94;;;21.69
74798;BMP280;63326;45.088;7.658;2022-09-09T05:36:02;98404.31;;;21.41
74798;BMP280;63326;45.088;7.658;2022-09-09T05:38:29;98414.56;;;21.70
74798;BMP280;63326;45.088;7.658;2022-09-09T05:40:55;98407.22;;;21.90
74798;BMP280;63326;45.088;7.658;2022-09-09T05:43:22;98414.31;;;21.80
74798;BMP280;63326;45.088;7.658;2022-09-09T05:45:47;98430.03;;;21.66
74798;BMP280;63326;45.088;7.658;2022-09-09T05:48:14;98433.19;;;21.60
74798;BMP280;63326;45.088;7.658;2022-09-09T05:53:10;98420.56;;;20.87
74798;BMP280;63326;45.088;7.658;2022-09-09T05:55:36;98432.25;;;20.18
74798;BMP280;63326;45.088;7.658;2022-09-09T05:58:01;98424.13;;;20.53
74798;BMP280;63326;45.088;7.658;2022-09-09T06:00:27;98414.47;;;20.82
74798;BMP280;63326;45.088;7.658;2022-09-09T06:02:53;98426.78;;;20.56
74798;BMP280;63326;45.088;7.658;2022-09-09T06:05:19;98428.66;;;20.29
74798;BMP280;63326;45.088;7.658;2022-09-09T06:07:45;98439.91;;;20.20
74798;BMP280;63326;45.088;7.658;2022-09-09T06:10:11;98431.66;;;20.34
74798;BMP280;63326;45.088;7.658;2022-09-09T06:12:39;98428.16;;;20.37
74798;BMP280;63326;45.088;7.658;2022-09-09T06:15:05;98434.88;;;20.53
74798;BMP280;63326;45.088;7.658;2022-09-09T06:17:30;98436.16;;;20.72
74798;BMP280;63326;45.088;7.658;2022-09-09T06:19:56;98438.81;;;20.48
74798;BMP280;63326;45.088;7.658;2022-09-09T06:22:21;98443.03;;;20.46
74798;BMP280;63326;45.088;7.658;2022-09-09T06:24:46;98445.47;;;20.67
74798;BMP280;63326;45.088;7.658;2022-09-09T06:27:11;98449.63;;;20.72
74798;BMP280;63326;45.088;7.658;2022-09-09T06:29:38;98452.41;;;20.65
74798;BMP280;63326;45.088;7.658;2022-09-09T06:32:04;98449.75;;;20.92
74798;BMP280;63326;45.088;7.658;2022-09-09T06:34:29;98448.47;;;20.73
74798;BMP280;63326;45.088;7.658;2022-09-09T06:36:55;98447.63;;;20.76
74798;BMP280;63326;45.088;7.658;2022-09-09T06:39:23;98451.19;;;20.69
74798;BMP280;63326;45.088;7.658;2022-09-09T06:41:48;98456.50;;;20.49
74798;BMP280;63326;45.088;7.658;2022-09-09T06:44:14;98458.41;;;20.76
74798;BMP280;63326;45.088;7.658;2022-09-09T06:46:40;98449.66;;;20.95
74798;BMP280;63326;45.088;7.658;2022-09-09T06:49:08;98449.00;;;21.15
74798;BMP280;63326;45.088;7.658;2022-09-09T06:51:35;98452.56;;;21.32
74798;BMP280;63326;45.088;7.658;2022-09-09T06:54:02;98448.81;;;21.49
74798;BMP280;63326;45.088;7.658;2022-09-09T06:56:48;98462.06;;;21.40
74798;BMP280;63326;45.088;7.658;2022-09-09T06:59:15;98457.72;;;21.22
74798;BMP280;63326;45.088;7.658;2022-09-09T07:01:42;98455.69;;;21.30
74798;BMP280;63326;45.088;7.658;2022-09-09T07:04:12;98453.97;;;21.40
74798;BMP280;63326;45.088;7.658;2022-09-09T07:06:40;98448.69;;;21.56
74798;BMP280;63326;45.088;7.658;2022-09-09T07:09:09;98449.34;;;21.40
74798;BMP280;63326;45.088;7.658;2022-09-09T07:14:05;98457.81;;;21.39
74798;BMP280;63326;45.088;7.658;2022-09-09T07:16:30;98466.81;;;21.56
74798;BMP280;63326;45.088;7.658;2022-09-09T07:18:58;98460.78;;;21.25
74798;BMP280;63326;45.088;7.658;2022-09-09T07:21:25;98458.78;;;21.52
74798;BMP280;63326;45.088;7.658;2022-09-09T07:23:51;98460.69;;;21.75
74798;BMP280;63326;45.088;7.658;2022-09-09T07:26:19;98462.50;;;21.82
74798;BMP280;63326;45.088;7.658;2022-09-09T07:28:45;98457.09;;;22.02
74798;BMP280;63326;45.088;7.658;2022-09-09T07:31:16;98457.91;;;21.79
74798;BMP280;63326;45.088;7.658;2022-09-09T07:33:42;98457.63;;;21.73
74798;BMP280;63326;45.088;7.658;2022-09-09T07:38:39;98465.78;;;21.90
74798;BMP280;63326;45.088;7.658;2022-09-09T07:41:19;98465.66;;;21.97
74798;BMP280;63326;45.088;7.658;2022-09-09T07:43:46;98462.56;;;21.78
74798;BMP280;63326;45.088;7.658;2022-09-09T07:46:14;98464.34;;;21.85
74798;BMP280;63326;45.088;7.658;2022-09-09T07:48:44;98463.94;;;21.87
74798;BMP280;63326;45.088;7.658;2022-09-09T07:51:15;98462.88;;;22.00
74798;BMP280;63326;45.088;7.658;2022-09-09T07:53:45;98464.09;;;22.36
74798;BMP280;63326;45.088;7.658;2022-09-09T07:56:15;98465.22;;;22.38
74798;BMP280;63326;45.088;7.658;2022-09-09T07:58:46;98462.09;;;22.20
74798;BMP280;63326;45.088;7.658;2022-09-09T08:01:14;98470.78;;;22.11
74798;BMP280;63326;45.088;7.658;2022-09-09T08:03:41;98469.41;;;22.23
74798;BMP280;63326;45.088;7.658;2022-09-09T08:06:08;98468.78;;;22.35
74798;BMP280;63326;45.088;7.658;2022-09-09T08:08:35;98460.63;;;22.55
74798;BMP280;63326;45.088;7.658;2022-09-09T08:11:07;98470.25;;;22.73
74798;BMP280;63326;45.088;7.658;2022-09-09T08:13:35;98464.72;;;22.43
74798;BMP280;63326;45.088;7.658;2022-09-09T08:16:22;98469.81;;;22.58
74798;BMP280;63326;45.088;7.658;2022-09-09T08:18:48;98480.47;;;22.65
74798;BMP280;63326;45.088;7.658;2022-09-09T08:21:16;98478.72;;;22.38
74798;BMP280;63326;45.088;7.658;2022-09-09T08:23:44;98461.28;;;22.43
74798;BMP280;63326;45.088;7.658;2022-09-09T08:26:21;98474.75;;;22.79
74798;BMP280;63326;45.088;7.658;2022-09-09T08:28:48;98467.38;;;22.80
74798;BMP280;63326;45.088;7.658;2022-09-09T08:31:18;98475.94;;;22.95
74798;BMP280;63326;45.088;7.658;2022-09-09T08:33:44;98465.88;;;23.12
74798;BMP280;63326;45.088;7.658;2022-09-09T08:36:19;98467.41;;;22.96
74798;BMP280;63326;45.088;7.658;2022-09-09T08:38:52;98466.22;;;22.81
74798;BMP280;63326;45.088;7.658;2022-09-09T08:43:50;98471.38;;;23.08
74798;BMP280;63326;45.088;7.658;2022-09-09T08:46:24;98473.91;;;23.15
74798;BMP280;63326;45.088;7.658;2022-09-09T08:49:03;98483.59;;;23.29
74798;BMP280;63326;45.088;7.658;2022-09-09T08:51:31;98490.63;;;23.56
74798;BMP280;63326;45.088;7.658;2022-09-09T08:54:02;98492.22;;;23.70
74798;BMP280;63326;45.088;7.658;2022-09-09T08:56:31;98488.50;;;23.34
74798;BMP280;63326;45.088;7.658;2022-09-09T08:58:59;98490.25;;;23.41
74798;BMP280;63326;45.088;7.658;2022-09-09T09:04:24;98485.00;;;23.50
74798;BMP280;63326;45.088;7.658;2022-09-09T09:10:01;98479.53;;;23.66
74798;BMP280;63326;45.088;7.658;2022-09-09T09:12:30;98472.25;;;23.51
74798;BMP280;63326;45.088;7.658;2022-09-09T09:14:59;98477.09;;;23.43
74798;BMP280;63326;45.088;7.658;2022-09-09T09:17:27;98475.38;;;23.49
74798;BMP280;63326;45.088;7.658;2022-09-09T09:19:53;98471.41;;;23.54
74798;BMP280;63326;45.088;7.658;2022-09-09T09:22:25;98477.28;;;23.65
74798;BMP280;63326;45.088;7.658;2022-09-09T09:24:56;98468.16;;;23.88
74798;BMP280;63326;45.088;7.658;2022-09-09T09:30:01;98477.06;;;24.01
74798;BMP280;63326;45.088;7.658;2022-09-09T09:32:31;98467.22;;;24.07
74798;BMP280;63326;45.088;7.658;2022-09-09T09:34:58;98463.63;;;24.10
74798;BMP280;63326;45.088;7.658;2022-09-09T09:37:31;98455.34;;;24.18
74798;BMP280;63326;45.088;7.658;2022-09-09T09:40:13;98455.09;;;24.38
74798;BMP280;63326;45.088;7.658;2022-09-09T09:42:58;98460.44;;;24.41
74798;BMP280;63326;45.088;7.658;2022-09-09T09:45:32;98467.78;;;24.41
74798;BMP280;63326;45.088;7.658;2022-09-09T09:48:05;98464.22;;;24.44
74798;BMP280;63326;45.088;7.658;2022-09-09T09:50:32;98463.66;;;24.36
74798;BMP280;63326;45.088;7.658;2022-09-09T09:53:04;98459.66;;;24.28
74798;BMP280;63326;45.088;7.658;2022-09-09T09:55:31;98462.06;;;24.39
74798;BMP280;63326;45.088;7.658;2022-09-09T09:58:03;98469.28;;;24.29
74798;BMP280;63326;45.088;7.658;2022-09-09T10:00:29;98464.63;;;24.29
74798;BMP280;63326;45.088;7.658;2022-09-09T10:02:54;98462.28;;;24.32
74798;BMP280;63326;45.088;7.658;2022-09-09T10:07:47;98454.03;;;24.48
74798;BMP280;63326;45.088;7.658;2022-09-09T10:10:21;98456.00;;;24.60
74798;BMP280;63326;45.088;7.658;2022-09-09T10:13:05;98441.03;;;24.30
74798;BMP280;63326;45.088;7.658;2022-09-09T10:15:57;98452.72;;;24.40
74798;BMP280;63326;45.088;7.658;2022-09-09T10:45:49;98409.34;;;25.13
74798;BMP280;63326;45.088;7.658;2022-09-09T10:48:46;98410.13;;;25.13
74798;BMP280;63326;45.088;7.658;2022-09-09T10:57:02;98399.91;;;25.40
74798;BMP280;63326;45.088;7.658;2022-09-09T10:59:33;98399.09;;;25.30
74798;BMP280;63326;45.088;7.658;2022-09-09T11:07:54;98385.25;;;25.59
74798;BMP280;63326;45.088;7.658;2022-09-09T11:11:04;98386.56;;;25.32
74798;BMP280;63326;45.088;7.658;2022-09-09T11:13:36;98385.72;;;25.36
74798;BMP280;63326;45.088;7.658;2022-09-09T11:16:22;98384.09;;;25.69
74798;BMP280;63326;45.088;7.658;2022-09-09T11:18:55;98376.50;;;25.95
74798;BMP280;63326;45.088;7.658;2022-09-09T11:21:27;98376.13;;;26.15
74798;BMP280;63326;45.088;7.658;2022-09-09T11:24:01;98368.34;;;26.17
74798;BMP280;63326;45.088;7.658;2022-09-09T11:26:38;98362.91;;;26.17
74798;BMP280;63326;45.088;7.658;2022-09-09T11:34:50;98356.88;;;26.50
74798;BMP280;63326;45.088;7.658;2022-09-09T11:43:03;98349.50;;;26.69
74798;BMP280;63326;45.088;7.658;2022-09-09T11:45:32;98351.03;;;26.61
74798;BMP280;63326;45.088;7.658;2022-09-09T11:48:03;98347.53;;;26.51
74798;BMP280;63326;45.088;7.658;2022-09-09T11:50:31;98343.63;;;26.71
74798;BMP280;63326;45.088;7.658;2022-09-09T11:55:39;98342.38;;;27.09
74798;BMP280;63326;45.088;7.658;2022-09-09T11:58:16;98341.59;;;27.17
74798;BMP280;63326;45.088;7.658;2022-09-09T12:00:44;98336.91;;;27.27
74798;BMP280;63326;45.088;7.658;2022-09-09T12:06:12;98330.72;;;27.17
74798;BMP280;63326;45.088;7.658;2022-09-09T12:08:40;98332.84;;;27.22
74798;BMP280;63326;45.088;7.658;2022-09-09T12:11:07;98323.00;;;27.67
74798;BMP280;63326;45.088;7.658;2022-09-09T12:13:32;98317.72;;;27.64
74798;BMP280;63326;45.088;7.658;2022-09-09T12:15:59;98317.97;;;27.75
74798;BMP280;63326;45.088;7.658;2022-09-09T12:18:33;98320.69;;;27.42
74798;BMP280;63326;45.088;7.658;2022-09-09T12:23:50;98317.75;;;27.12
74798;BMP280;63326;45.088;7.658;2022-09-09T12:29:01;98315.63;;;27.07
74798;BMP280;63326;45.088;7.658;2022-09-09T12:32:02;98313.25;;;27.52
74798;BMP280;63326;45.088;7.658;2022-09-09T12:34:40;98308.78;;;27.39
74798;BMP280;63326;45.088;7.658;2022-09-09T12:39:55;98306.31;;;27.41
74798;BMP280;63326;45.088;7.658;2022-09-09T12:42:22;98302.03;;;27.59
74798;BMP280;63326;45.088;7.658;2022-09-09T12:45:02;98296.81;;;27.70
74798;BMP280;63326;45.088;7.658;2022-09-09T12:47:39;98299.06;;;27.48
74798;BMP280;63326;45.088;7.658;2022-09-09T12:50:17;98299.97;;;27.44
74798;BMP280;63326;45.088;7.658;2022-09-09T12:52:43;98290.34;;;27.92
74798;BMP280;63326;45.088;7.658;2022-09-09T12:55:23;98296.69;;;27.88
74798;BMP280;63326;45.088;7.658;2022-09-09T12:57:51;98287.88;;;28.03
74798;BMP280;63326;45.088;7.658;2022-09-09T13:02:54;98287.13;;;28.02
74798;BMP280;63326;45.088;7.658;2022-09-09T13:05:24;98276.31;;;28.47
74798;BMP280;63326;45.088;7.658;2022-09-09T13:07:50;98274.59;;;27.96
74798;BMP280;63326;45.088;7.658;2022-09-09T13:10:23;98264.63;;;28.31
74798;BMP280;63326;45.088;7.658;2022-09-09T13:12:49;98265.81;;;28.69
74798;BMP280;63326;45.088;7.658;2022-09-09T13:15:26;98262.41;;;28.74
74798;BMP280;63326;45.088;7.658;2022-09-09T13:17:54;98271.22;;;29.14
74798;BMP280;63326;45.088;7.658;2022-09-09T13:20:21;98271.50;;;29.16
74798;BMP280;63326;45.088;7.658;2022-09-09T13:22:49;98262.56;;;29.15
74798;BMP280;63326;45.088;7.658;2022-09-09T13:25:28;98253.25;;;29.22
74798;BMP280;63326;45.088;7.658;2022-09-09T13:28:05;98260.19;;;29.38
74798;BMP280;63326;45.088;7.658;2022-09-09T13:30:32;98252.38;;;29.51
74798;BMP280;63326;45.088;7.658;2022-09-09T13:38:17;98242.97;;;29.93
74798;BMP280;63326;45.088;7.658;2022-09-09T13:40:59;98243.22;;;30.16
74798;BMP280;63326;45.088;7.658;2022-09-09T13:43:34;98233.06;;;29.96
74798;BMP280;63326;45.088;7.658;2022-09-09T13:46:04;98238.03;;;30.18
74798;BMP280;63326;45.088;7.658;2022-09-09T13:48:30;98235.13;;;30.27
74798;BMP280;63326;45.088;7.658;2022-09-09T13:50:57;98233.47;;;30.09
74798;BMP280;63326;45.088;7.658;2022-09-09T13:53:23;98228.25;;;30.11
74798;BMP280;63326;45.088;7.658;2022-09-09T13:55:49;98222.34;;;30.44
74798;BMP280;63326;45.088;7.658;2022-09-09T13:58:16;98217.41;;;29.96
74798;BMP280;63326;45.088;7.658;2022-09-09T14:00:45;98214.91;;;30.19
74798;BMP280;63326;45.088;7.658;2022-09-09T14:03:11;98208.34;;;30.31
74798;BMP280;63326;45.088;7.658;2022-09-09T14:05:37;98214.84;;;29.87
74798;BMP280;63326;45.088;7.658;2022-09-09T14:08:07;98210.13;;;29.88
74798;BMP280;63326;45.088;7.658;2022-09-09T14:10:33;98207.03;;;30.00
74798;BMP280;63326;45.088;7.658;2022-09-09T14:13:02;98211.81;;;30.63
74798;BMP280;63326;45.088;7.658;2022-09-09T14:15:27;98207.16;;;30.38
74798;BMP280;63326;45.088;7.658;2022-09-09T14:17:53;98202.88;;;30.31
74798;BMP280;63326;45.088;7.658;2022-09-09T14:20:19;98208.81;;;30.56
74798;BMP280;63326;45.088;7.658;2022-09-09T14:22:44;98203.41;;;30.67
74798;BMP280;63326;45.088;7.658;2022-09-09T14:25:10;98200.59;;;30.93
74798;BMP280;63326;45.088;7.658;2022-09-09T14:27:36;98200.28;;;30.85
74798;BMP280;63326;45.088;7.658;2022-09-09T14:30:03;98201.19;;;30.71
74798;BMP280;63326;45.088;7.658;2022-09-09T14:32:29;98204.97;;;30.79
74798;BMP280;63326;45.088;7.658;2022-09-09T14:34:54;98198.44;;;30.71
74798;BMP280;63326;45.088;7.658;2022-09-09T14:37:20;98195.69;;;31.08
74798;BMP280;63326;45.088;7.658;2022-09-09T14:39:45;98191.63;;;31.47
74798;BMP280;63326;45.088;7.658;2022-09-09T14:42:12;98192.13;;;31.51
74798;BMP280;63326;45.088;7.658;2022-09-09T14:44:38;98198.13;;;31.55
74798;BMP280;63326;45.088;7.658;2022-09-09T14:47:07;98195.41;;;31.66
74798;BMP280;63326;45.088;7.658;2022-09-09T14:49:33;98194.88;;;31.51
74798;BMP280;63326;45.088;7.658;2022-09-09T14:51:59;98200.44;;;31.73
74798;BMP280;63326;45.088;7.658;2022-09-09T14:54:24;98209.19;;;32.00
74798;BMP280;63326;45.088;7.658;2022-09-09T14:56:49;98205.44;;;32.03
74798;BMP280;63326;45.088;7.658;2022-09-09T14:59:15;98205.22;;;32.12
74798;BMP280;63326;45.088;7.658;2022-09-09T15:01:40;98203.00;;;31.28
74798;BMP280;63326;45.088;7.658;2022-09-09T15:04:06;98198.88;;;31.55
74798;BMP280;63326;45.088;7.658;2022-09-09T15:06:34;98196.47;;;32.02
74798;BMP280;63326;45.088;7.658;2022-09-09T15:09:01;98196.94;;;31.78
74798;BMP280;63326;45.088;7.658;2022-09-09T15:11:28;98194.47;;;31.86
74798;BMP280;63326;45.088;7.658;2022-09-09T15:13:55;98187.28;;;32.28
74798;BMP280;63326;45.088;7.658;2022-09-09T15:16:24;98183.31;;;32.40
74798;BMP280;63326;45.088;7.658;2022-09-09T15:18:54;98183.78;;;32.50
74798;BMP280;63326;45.088;7.658;2022-09-09T15:21:22;98188.78;;;32.40
74798;BMP280;63326;45.088;7.658;2022-09-09T15:23:48;98185.97;;;32.85
74798;BMP280;63326;45.088;7.658;2022-09-09T15:26:14;98182.94;;;32.95
74798;BMP280;63326;45.088;7.658;2022-09-09T15:28:41;98180.94;;;32.95
74798;BMP280;63326;45.088;7.658;2022-09-09T15:31:23;98185.16;;;33.02
74798;BMP280;63326;45.088;7.658;2022-09-09T15:33:53;98178.97;;;33.48
74798;BMP280;63326;45.088;7.658;2022-09-09T15:36:21;98184.84;;;33.64
74798;BMP280;63326;45.088;7.658;2022-09-09T15:38:47;98183.03;;;33.36
74798;BMP280;63326;45.088;7.658;2022-09-09T15:41:13;98169.59;;;32.40
74798;BMP280;63326;45.088;7.658;2022-09-09T15:43:43;98176.75;;;34.13
74798;BMP280;63326;45.088;7.658;2022-09-09T15:48:51;98184.50;;;36.62
74798;BMP280;63326;45.088;7.658;2022-09-09T15:51:17;98176.69;;;40.31
74798;BMP280;63326;45.088;7.658;2022-09-09T15:53:44;98168.00;;;35.07
74798;BMP280;63326;45.088;7.658;2022-09-09T15:56:10;98193.19;;;38.91
74798;BMP280;63326;45.088;7.658;2022-09-09T15:58:36;98204.66;;;35.72
74798;BMP280;63326;45.088;7.658;2022-09-09T16:01:05;98207.63;;;35.74
74798;BMP280;63326;45.088;7.658;2022-09-09T16:03:41;98211.69;;;41.99
74798;BMP280;63326;45.088;7.658;2022-09-09T16:06:15;98208.56;;;43.21
74798;BMP280;63326;45.088;7.658;2022-09-09T16:08:42;98209.03;;;42.01
74798;BMP280;63326;45.088;7.658;2022-09-09T16:11:09;98172.25;;;38.67
74798;BMP280;63326;45.088;7.658;2022-09-09T16:13:36;98216.94;;;38.06
74798;BMP280;63326;45.088;7.658;2022-09-09T16:16:03;98215.84;;;43.06
74798;BMP280;63326;45.088;7.658;2022-09-09T16:18:48;98217.28;;;44.92
74798;BMP280;63326;45.088;7.658;2022-09-09T16:21:44;98227.00;;;44.40
74798;BMP280;63326;45.088;7.658;2022-09-09T16:24:12;98218.44;;;44.57
74798;BMP280;63326;45.088;7.658;2022-09-09T16:26:39;98212.50;;;43.74
74798;BMP280;63326;45.088;7.658;2022-09-09T16:29:05;98218.84;;;41.68
74798;BMP280;63326;45.088;7.658;2022-09-09T16:31:30;98218.50;;;43.99
74798;BMP280;63326;45.088;7.658;2022-09-09T16:33:57;98224.97;;;43.07